Time;durP1;ratioP1;P1;durP2;ratioP2;P2;SDS_P1;SDS_P2;PMS_P1;PMS_P2;Temp;Humidity;BMP_temperature;BMP_pressure;BME280_temperature;BME280_humidity;BME280_pressure;Samples;Min_cycle;Max_cycle;Signal;HPM_P1;HPM_P2
2023/09/20 00:02:06;;;;;;;;;0.00;0.00;;;;;19.44;100.00;101045.41;5101800;27;45291;-74
2023/09/20 00:04:33;;;;;;;;;2.00;0.00;;;;;19.28;100.00;101016.25;5108473;27;45217;-73
2023/09/20 00:06:58;;;;;;;;;0.00;0.00;;;;;19.29;100.00;101014.41;5131075;27;45537;-74
2023/09/20 00:09:23;;;;;;;;;0.00;0.00;;;;;19.38;100.00;101027.94;5109637;27;45583;-74
2023/09/20 00:11:49;;;;;;;;;0.00;0.00;;;;;19.35;100.00;101027.34;5116364;27;45483;-74
2023/09/20 00:14:14;;;;;;;;;0.00;0.00;;;;;19.32;100.00;101035.63;5102233;27;45494;-73
2023/09/20 00:16:40;;;;;;;;;2.33;0.00;;;;;19.34;100.00;101029.16;5112213;27;45490;-74
2023/09/20 00:19:06;;;;;;;;;2.00;0.00;;;;;19.35;100.00;101030.88;5100019;27;45722;-74
2023/09/20 00:21:31;;;;;;;;;1.00;0.33;;;;;19.30;100.00;101022.34;5105664;27;45343;-75
2023/09/20 00:23:56;;;;;;;;;0.00;0.00;;;;;19.33;100.00;101024.78;5101707;27;45411;-75
2023/09/20 00:26:22;;;;;;;;;0.00;0.00;;;;;19.33;100.00;101031.97;5106337;27;46269;-75
2023/09/20 00:28:48;;;;;;;;;0.67;0.67;;;;;19.27;100.00;101021.75;5114629;27;45667;-75
2023/09/20 00:31:15;;;;;;;;;0.00;0.00;;;;;19.21;100.00;101015.88;5115065;27;45327;-75
2023/09/20 00:33:41;;;;;;;;;0.00;0.00;;;;;19.31;100.00;101026.72;5108140;27;45481;-74
2023/09/20 00:36:06;;;;;;;;;0.00;0.00;;;;;19.31;100.00;101024.03;5101116;27;45408;-75
2023/09/20 00:38:32;;;;;;;;;0.67;0.00;;;;;19.25;100.00;101011.13;5099536;27;45452;-74
2023/09/20 00:40:57;;;;;;;;;0.00;0.00;;;;;19.18;100.00;101005.41;5105508;27;45404;-74
2023/09/20 00:43:24;;;;;;;;;0.00;0.00;;;;;19.27;100.00;101018.06;5113668;27;45405;-74
2023/09/20 00:45:50;;;;;;;;;2.00;0.67;;;;;19.26;100.00;101007.47;5100392;27;46177;-75
2023/09/20 00:48:17;;;;;;;;;0.33;0.33;;;;;19.24;100.00;101006.72;5110845;27;45332;-74
2023/09/20 00:50:43;;;;;;;;;3.00;1.00;;;;;19.18;100.00;100997.34;5107266;27;45348;-75
2023/09/20 00:53:11;;;;;;;;;0.00;0.00;;;;;19.22;100.00;101003.34;5108944;27;45333;-74
2023/09/20 00:55:38;;;;;;;;;0.00;0.00;;;;;19.19;100.00;101004.44;5101521;27;45529;-74
2023/09/20 00:58:07;;;;;;;;;0.00;0.00;;;;;19.14;100.00;100990.53;5100330;27;45371;-74
2023/09/20 01:00:37;;;;;;;;;0.00;0.00;;;;;19.18;100.00;100994.69;5113689;27;45391;-75
2023/09/20 01:03:04;;;;;;;;;1.00;1.00;;;;;19.17;100.00;100984.91;5099342;27;45382;-74
2023/09/20 01:05:34;;;;;;;;;0.33;0.00;;;;;19.08;100.00;100987.47;5099565;27;45338;-74
2023/09/20 01:08:01;;;;;;;;;1.33;0.00;;;;;19.12;100.00;100988.94;5112180;27;45532;-74
2023/09/20 01:10:27;;;;;;;;;2.00;0.67;;;;;19.11;100.00;100996.13;5115154;27;45357;-74
2023/09/20 01:12:54;;;;;;;;;0.00;0.00;;;;;19.10;100.00;100996.28;5102266;27;45589;-75
2023/09/20 01:15:21;;;;;;;;;0.33;0.33;;;;;19.08;100.00;100995.53;5099183;27;45502;-74
2023/09/20 01:17:48;;;;;;;;;0.00;0.00;;;;;19.06;100.00;101001.03;5099160;27;45511;-75
2023/09/20 01:20:14;;;;;;;;;1.00;0.00;;;;;19.04;100.00;100999.44;5099640;27;45388;-74
2023/09/20 01:22:40;;;;;;;;;0.00;0.00;;;;;19.02;100.00;100996.88;5098824;27;45286;-74
2023/09/20 01:25:07;;;;;;;;;1.00;0.00;;;;;18.93;100.00;100978.84;5098753;27;45699;-75
2023/09/20 01:27:35;;;;;;;;;0.00;0.00;;;;;18.95;100.00;100979.56;5112892;27;45405;-75
2023/09/20 01:30:00;;;;;;;;;0.33;0.33;;;;;18.88;100.00;100980.19;5100901;27;45766;-74
2023/09/20 01:32:25;;;;;;;;;1.00;0.00;;;;;18.81;100.00;100971.78;5105592;27;45394;-74
2023/09/20 01:34:51;;;;;;;;;1.00;1.00;;;;;18.93;100.00;100988.72;5107864;27;55433;-74
2023/09/20 01:37:16;;;;;;;;;1.00;0.00;;;;;18.86;100.00;100987.47;5109049;27;45300;-74
2023/09/20 01:39:42;;;;;;;;;0.00;0.00;;;;;18.88;100.00;100970.28;5120726;27;45472;-74
2023/09/20 01:42:07;;;;;;;;;1.00;0.00;;;;;18.87;100.00;100978.47;5121761;27;45425;-73
2023/09/20 01:44:37;;;;;;;;;1.00;1.00;;;;;18.87;100.00;100976.66;5109592;27;45308;-75
2023/09/20 01:47:03;;;;;;;;;1.00;1.00;;;;;18.83;100.00;100972.50;5125362;27;45227;-74
2023/09/20 01:49:32;;;;;;;;;1.00;0.00;;;;;18.84;100.00;100973.34;5122299;27;45416;-74
2023/09/20 01:51:58;;;;;;;;;1.67;0.00;;;;;18.84;100.00;100984.94;5110268;27;45544;-74
2023/09/20 01:54:23;;;;;;;;;0.00;0.00;;;;;18.68;100.00;100966.50;5103169;27;45702;-74
2023/09/20 01:56:49;;;;;;;;;3.00;0.33;;;;;18.80;100.00;100986.16;5111403;27;45318;-74
2023/09/20 01:59:15;;;;;;;;;1.00;1.00;;;;;18.77;100.00;100980.16;5104592;27;45488;-73
2023/09/20 02:01:41;;;;;;;;;2.00;0.00;;;;;18.75;100.00;100969.56;5112468;27;45326;-73
2023/09/20 02:04:06;;;;;;;;;0.00;0.00;;;;;18.65;100.00;100961.38;5115505;27;46700;-74
2023/09/20 02:06:32;;;;;;;;;0.00;0.00;;;;;18.70;100.00;100977.97;5106901;27;45412;-74
2023/09/20 02:08:57;;;;;;;;;1.00;1.00;;;;;18.65;100.00;100968.59;5117749;27;45374;-74
2023/09/20 02:11:23;;;;;;;;;2.00;1.00;;;;;18.66;100.00;100962.25;5104764;27;45408;-73
2023/09/20 02:13:49;;;;;;;;;2.67;0.33;;;;;18.61;100.00;100959.94;5111852;27;46728;-73
2023/09/20 02:16:14;;;;;;;;;1.00;1.00;;;;;18.59;100.00;100948.47;5122559;27;45325;-74
2023/09/20 02:18:40;;;;;;;;;1.67;1.00;;;;;18.54;100.00;100944.47;5112565;27;45750;-73
2023/09/20 02:21:06;;;;;;;;;0.67;0.67;;;;;18.60;100.00;100957.38;5111221;27;45449;-73
2023/09/20 02:23:32;;;;;;;;;1.00;1.00;;;;;18.56;100.00;100948.72;5102277;27;46013;-73
2023/09/20 02:25:57;;;;;;;;;0.00;0.00;;;;;18.54;100.00;100944.47;5101974;27;45344;-73
2023/09/20 02:28:22;;;;;;;;;1.00;1.00;;;;;18.48;100.00;100937.72;5102313;27;45368;-73
2023/09/20 02:30:50;;;;;;;;;2.00;1.00;;;;;18.45;100.00;100932.63;5112350;27;45503;-74
2023/09/20 02:33:16;;;;;;;;;0.00;0.00;;;;;18.46;100.00;100933.44;5109694;27;46149;-73
2023/09/20 02:35:41;;;;;;;;;0.00;0.00;;;;;18.46;100.00;100936.97;5103530;27;45463;-73
2023/09/20 02:38:07;;;;;;;;;2.00;1.00;;;;;18.34;100.00;100923.69;5107656;27;45380;-74
2023/09/20 02:40:36;;;;;;;;;0.00;0.00;;;;;18.45;100.00;100943.34;5108052;27;45464;-73
2023/09/20 02:43:03;;;;;;;;;2.00;1.00;;;;;18.44;100.00;100944.28;5114353;27;46524;-73
2023/09/20 02:45:34;;;;;;;;;4.00;0.00;;;;;18.42;100.00;100950.75;5120650;27;45216;-73
2023/09/20 02:48:02;;;;;;;;;0.00;0.00;;;;;18.34;100.00;100931.72;5103691;27;45346;-73
2023/09/20 02:50:28;;;;;;;;;0.67;0.00;;;;;18.34;100.00;100942.44;5107422;27;45686;-74
2023/09/20 02:52:56;;;;;;;;;0.00;0.00;;;;;18.30;100.00;100938.28;5118562;27;46100;-73
2023/09/20 02:55:22;;;;;;;;;0.67;0.33;;;;;18.34;100.00;100943.28;5100992;27;45359;-73
2023/09/20 02:57:50;;;;;;;;;0.00;0.00;;;;;18.32;100.00;100936.34;5102348;27;45736;-74
2023/09/20 03:00:21;;;;;;;;;1.00;1.00;;;;;18.32;100.00;100939.88;5102554;27;45649;-74
2023/09/20 03:02:47;;;;;;;;;0.00;0.00;;;;;18.29;100.00;100923.22;5111490;27;45518;-74
2023/09/20 03:05:17;;;;;;;;;0.00;0.00;;;;;18.32;100.00;100931.00;5105585;27;45609;-74
2023/09/20 03:07:48;;;;;;;;;0.00;0.00;;;;;18.28;100.00;100918.81;5114588;27;45472;-74
2023/09/20 03:10:15;;;;;;;;;0.33;0.33;;;;;18.33;100.00;100924.66;5113287;27;45486;-74
2023/09/20 03:12:44;;;;;;;;;0.00;0.00;;;;;18.32;100.00;100921.16;5104917;27;46114;-74
2023/09/20 03:15:11;;;;;;;;;0.67;0.67;;;;;18.31;100.00;100923.94;5100704;27;45528;-75
2023/09/20 03:17:38;;;;;;;;;1.00;1.00;;;;;18.30;100.00;100907.00;5101441;27;45314;-74
2023/09/20 03:20:11;;;;;;;;;0.00;0.00;;;;;18.29;100.00;100913.31;5118075;27;45560;-74
2023/09/20 03:22:38;;;;;;;;;1.00;1.00;;;;;18.25;100.00;100903.00;5111026;27;47588;-74
2023/09/20 03:25:04;;;;;;;;;0.67;0.67;;;;;18.23;100.00;100895.91;5120284;27;45364;-75
2023/09/20 03:27:30;;;;;;;;;1.00;1.00;;;;;18.26;100.00;100899.34;5120571;27;45442;-74
2023/09/20 03:29:56;;;;;;;;;0.33;0.00;;;;;18.22;100.00;100906.75;5122495;27;45371;-75
2023/09/20 03:32:22;;;;;;;;;1.00;0.00;;;;;18.20;100.00;100897.97;5111545;27;45998;-74
2023/09/20 03:34:48;;;;;;;;;1.67;1.67;;;;;18.23;100.00;100903.09;5114425;27;45378;-74
2023/09/20 03:37:14;;;;;;;;;0.00;0.00;;;;;18.18;100.00;100895.44;5112549;27;45294;-74
2023/09/20 03:39:40;;;;;;;;;2.00;1.00;;;;;18.21;100.00;100888.97;5118583;27;45290;-75
2023/09/20 03:42:09;;;;;;;;;0.00;0.00;;;;;18.20;100.00;100888.13;5112863;27;48162;-74
2023/09/20 03:44:35;;;;;;;;;1.00;1.00;;;;;18.18;100.00;100882.06;5121741;27;45406;-74
2023/09/20 03:47:00;;;;;;;;;1.00;1.00;;;;;18.17;100.00;100888.38;5113194;27;45413;-74
2023/09/20 03:49:26;;;;;;;;;0.00;0.00;;;;;18.14;100.00;100877.91;5110961;27;45460;-75
2023/09/20 03:51:52;;;;;;;;;1.00;1.00;;;;;18.16;100.00;100878.63;5108607;27;45904;-74
2023/09/20 03:54:17;;;;;;;;;1.67;0.67;;;;;18.15;100.00;100871.59;5111999;27;45489;-74
2023/09/20 03:56:43;;;;;;;;;0.33;0.33;;;;;18.13;100.00;100873.50;5121452;27;45329;-74
2023/09/20 03:59:12;;;;;;;;;0.00;0.00;;;;;18.05;100.00;100859.03;5108130;27;45566;-74
2023/09/20 04:01:37;;;;;;;;;1.00;0.67;;;;;18.05;100.00;100859.88;5101416;27;46978;-74
2023/09/20 04:04:04;;;;;;;;;0.00;0.00;;;;;18.10;100.00;100871.06;5100341;27;45444;-75
2023/09/20 04:06:34;;;;;;;;;1.00;1.00;;;;;18.13;100.00;100878.00;5103859;27;45453;-74
2023/09/20 04:09:04;;;;;;;;;1.33;0.00;;;;;18.13;100.00;100867.28;5118923;27;45311;-74
2023/09/20 04:11:30;;;;;;;;;0.00;0.00;;;;;18.06;100.00;100858.06;5111731;27;45445;-74
2023/09/20 04:13:57;;;;;;;;;1.00;1.00;;;;;18.11;100.00;100854.03;5100340;27;46600;-75
2023/09/20 04:16:22;;;;;;;;;2.00;1.00;;;;;18.14;100.00;100852.94;5100930;27;45362;-75
2023/09/20 04:18:48;;;;;;;;;1.00;1.00;;;;;18.15;100.00;100860.00;5101761;27;51282;-74
2023/09/20 04:21:14;;;;;;;;;1.00;1.00;;;;;18.15;100.00;100855.53;5102390;27;45596;-74
2023/09/20 04:23:39;;;;;;;;;2.00;1.00;;;;;18.11;100.00;100848.69;5111324;27;46549;-74
2023/09/20 04:26:04;;;;;;;;;0.00;0.00;;;;;18.17;100.00;100847.34;5111377;27;45346;-74
2023/09/20 04:28:30;;;;;;;;;0.00;0.00;;;;;18.18;100.00;100839.22;5105520;27;50239;-74
2023/09/20 04:30:55;;;;;;;;;0.33;0.33;;;;;18.18;100.00;100836.53;5099550;27;45797;-74
2023/09/20 04:33:20;;;;;;;;;1.67;0.00;;;;;18.20;100.00;100831.03;5113753;27;45264;-74
2023/09/20 04:35:47;;;;;;;;;1.00;1.00;;;;;18.18;100.00;100817.78;5115488;27;45615;-74
2023/09/20 04:38:12;;;;;;;;;0.33;0.00;;;;;18.19;100.00;100815.97;5112039;27;45641;-74
2023/09/20 04:40:38;;;;;;;;;1.00;0.00;;;;;18.17;100.00;100816.09;5099854;27;47243;-75
2023/09/20 04:43:05;;;;;;;;;1.00;0.33;;;;;18.20;100.00;100820.34;5099771;27;45418;-75
2023/09/20 04:45:31;;;;;;;;;1.00;1.00;;;;;18.19;100.00;100824.84;5111486;27;45390;-74
2023/09/20 04:47:57;;;;;;;;;1.33;0.00;;;;;18.17;100.00;100825.94;5115948;27;47538;-74
2023/09/20 04:50:22;;;;;;;;;0.67;0.67;;;;;18.17;100.00;100826.78;5111690;27;47331;-74
2023/09/20 04:52:50;;;;;;;;;3.33;1.00;;;;;18.11;100.00;100808.53;5109064;27;45354;-74
2023/09/20 04:55:15;;;;;;;;;2.00;0.67;;;;;18.12;100.00;100806.72;5100083;27;45353;-75
2023/09/20 04:57:41;;;;;;;;;4.00;1.00;;;;;18.22;100.00;100819.25;5099405;27;45336;-74
2023/09/20 05:00:08;;;;;;;;;2.00;0.67;;;;;18.24;100.00;100816.44;5100506;27;45969;-74
2023/09/20 05:02:33;;;;;;;;;1.00;1.00;;;;;18.22;100.00;100819.25;5117682;27;45372;-74
2023/09/20 05:04:59;;;;;;;;;0.67;0.67;;;;;18.23;100.00;100812.91;5113683;27;45558;-75
2023/09/20 05:07:27;;;;;;;;;1.00;1.00;;;;;18.25;100.00;100809.28;5104897;27;45462;-74
2023/09/20 05:09:52;;;;;;;;;2.33;1.00;;;;;18.25;100.00;100817.31;5117311;27;45373;-74
2023/09/20 05:12:17;;;;;;;;;1.00;0.00;;;;;18.23;100.00;100812.06;5100198;27;45369;-74
2023/09/20 05:14:42;;;;;;;;;2.00;1.00;;;;;18.20;100.00;100818.53;5113953;27;52379;-74
2023/09/20 05:17:08;;;;;;;;;2.00;1.00;;;;;18.23;100.00;100817.41;5103138;27;45473;-74
2023/09/20 05:19:33;;;;;;;;;2.00;2.00;;;;;18.21;100.00;100814.03;5110500;27;45603;-74
2023/09/20 05:22:00;;;;;;;;;1.00;1.00;;;;;18.22;100.00;100824.59;5104688;27;45479;-74
2023/09/20 05:24:26;;;;;;;;;2.00;1.00;;;;;18.25;100.00;100822.66;5101595;27;45300;-75
2023/09/20 05:26:52;;;;;;;;;0.67;0.67;;;;;18.22;100.00;100811.22;5111431;27;45600;-75
2023/09/20 05:29:18;;;;;;;;;0.33;0.00;;;;;18.23;100.00;100812.91;5100753;27;49731;-75
2023/09/20 05:31:43;;;;;;;;;1.00;1.00;;;;;18.19;100.00;100805.28;5102710;27;45320;-74
2023/09/20 05:34:08;;;;;;;;;1.33;1.33;;;;;18.16;100.00;100803.66;5100389;27;45315;-75
2023/09/20 05:36:34;;;;;;;;;2.33;1.00;;;;;18.17;100.00;100807.19;5102273;27;45710;-75
2023/09/20 05:38:59;;;;;;;;;0.67;0.67;;;;;18.14;100.00;100805.63;5107888;27;45697;-74
2023/09/20 05:41:28;;;;;;;;;2.33;1.00;;;;;18.14;100.00;100812.78;5116695;27;45393;-74
2023/09/20 05:43:53;;;;;;;;;3.00;1.00;;;;;18.01;100.00;100794.16;5099577;27;45490;-74
2023/09/20 05:46:18;;;;;;;;;1.67;1.67;;;;;18.14;100.00;100820.81;5111089;27;45362;-75
2023/09/20 05:48:44;;;;;;;;;1.00;1.00;;;;;18.13;100.00;100824.47;5116732;27;45354;-74
2023/09/20 05:51:14;;;;;;;;;1.00;1.00;;;;;18.11;100.00;100818.38;5113964;27;45384;-74
2023/09/20 05:53:42;;;;;;;;;1.67;0.67;;;;;18.05;100.00;100800.13;5100473;27;45392;-75
2023/09/20 05:56:08;;;;;;;;;1.00;1.00;;;;;18.10;100.00;100801.47;5110026;27;45500;-74
2023/09/20 05:58:34;;;;;;;;;2.00;2.00;;;;;18.11;100.00;100795.16;5104847;27;45995;-74
2023/09/20 06:01:00;;;;;;;;;1.67;1.00;;;;;18.14;100.00;100783.34;5119218;27;45371;-74
2023/09/20 06:03:26;;;;;;;;;2.67;1.00;;;;;18.14;100.00;100780.66;5113230;27;45322;-74
2023/09/20 06:05:51;;;;;;;;;2.33;1.00;;;;;18.14;100.00;100783.34;5117763;27;45514;-75
2023/09/20 06:08:17;;;;;;;;;1.00;1.00;;;;;18.14;100.00;100773.50;5109839;27;52359;-74
2023/09/20 06:10:44;;;;;;;;;1.33;0.67;;;;;18.15;100.00;100783.25;5108266;27;45303;-74
2023/09/20 06:13:10;;;;;;;;;1.00;1.00;;;;;18.11;100.00;100764.84;5099690;27;45453;-74
2023/09/20 06:15:36;;;;;;;;;1.00;1.00;;;;;18.18;100.00;100774.09;5099305;27;45397;-75
2023/09/20 06:18:02;;;;;;;;;2.67;1.00;;;;;18.17;100.00;100775.94;5107279;27;46367;-74
2023/09/20 06:20:28;;;;;;;;;0.67;0.67;;;;;18.26;100.00;100792.25;5109158;27;45723;-75
2023/09/20 06:22:54;;;;;;;;;1.67;1.00;;;;;18.28;100.00;100796.50;5102627;27;45394;-74
2023/09/20 06:25:21;;;;;;;;;1.00;1.00;;;;;18.32;100.00;100797.13;5103646;27;45275;-75
2023/09/20 06:27:50;;;;;;;;;2.00;2.00;;;;;18.34;100.00;100801.38;5109952;27;45322;-74
2023/09/20 06:30:20;;;;;;;;;1.33;1.33;;;;;18.32;100.00;100789.09;5111379;27;45539;-74
2023/09/20 06:32:46;;;;;;;;;3.67;1.67;;;;;18.42;100.00;100803.44;5103840;27;45471;-74
2023/09/20 06:35:14;;;;;;;;;5.00;2.00;;;;;18.45;100.00;100788.00;5110821;27;45475;-75
2023/09/20 06:37:40;;;;;;;;;1.00;1.00;;;;;18.51;100.00;100792.03;5117203;27;45385;-74
2023/09/20 06:40:22;;;;;;;;;1.00;1.00;;;;;18.52;100.00;100783.03;5111802;27;45506;-75
2023/09/20 06:42:50;;;;;;;;;1.00;1.00;;;;;18.63;100.00;100799.06;5118619;27;45510;-75
2023/09/20 06:45:17;;;;;;;;;1.67;1.67;;;;;18.69;100.00;100794.06;5105705;27;45377;-75
2023/09/20 06:47:43;;;;;;;;;2.67;2.00;;;;;18.73;100.00;100800.03;5110667;27;45268;-74
2023/09/20 06:50:09;;;;;;;;;0.67;0.67;;;;;18.66;100.00;100796.13;5104732;27;45308;-74
2023/09/20 06:52:34;;;;;;;;;2.33;1.67;;;;;18.80;100.00;100805.75;5114589;27;45287;-74
2023/09/20 06:54:59;;;;;;;;;2.00;2.00;;;;;18.79;100.00;100798.66;5114132;27;45306;-73
2023/09/20 06:57:25;;;;;;;;;2.67;1.00;;;;;18.76;100.00;100791.75;5112557;27;47328;-74
2023/09/20 06:59:54;;;;;;;;;2.33;2.33;;;;;18.77;100.00;100793.44;5120948;27;45953;-73
2023/09/20 07:02:19;;;;;;;;;1.00;1.00;;;;;18.81;100.00;100800.28;5110111;27;45459;-73
2023/09/20 07:04:48;;;;;;;;;2.00;2.00;;;;;18.84;100.00;100794.66;5120441;27;45482;-73
2023/09/20 07:07:14;;;;;;;;;3.00;3.00;;;;;18.97;100.00;100802.53;5117448;27;46545;-74
2023/09/20 07:09:39;;;;;;;;;2.00;2.00;;;;;19.02;100.00;100789.59;5107209;27;45322;-74
2023/09/20 07:12:08;;;;;;;;;1.00;1.00;;;;;19.06;100.00;100788.38;5107095;27;45477;-73
2023/09/20 07:14:34;;;;;;;;;2.00;2.00;;;;;19.12;100.00;100803.94;5115040;27;45405;-73
2023/09/20 07:17:03;;;;;;;;;2.67;1.33;;;;;19.10;100.00;100793.38;5107390;27;47042;-74
2023/09/20 07:19:29;;;;;;;;;2.67;1.67;;;;;19.12;100.00;100795.91;5104910;27;45552;-74
2023/09/20 07:21:55;;;;;;;;;2.67;1.67;;;;;19.19;100.00;100791.75;5106014;27;45537;-74
2023/09/20 07:24:24;;;;;;;;;1.00;1.00;;;;;19.27;100.00;100790.13;5103601;27;45388;-74
2023/09/20 07:26:54;;;;;;;;;1.67;1.67;;;;;19.33;100.00;100790.59;5108996;27;46955;-74
2023/09/20 07:29:21;;;;;;;;;2.67;1.00;;;;;19.39;100.00;100795.44;5111516;27;45522;-74
2023/09/20 07:31:48;;;;;;;;;4.33;1.67;;;;;19.43;100.00;100795.09;5113159;27;45356;-74
2023/09/20 07:34:14;;;;;;;;;1.67;1.67;;;;;19.44;100.00;100791.41;5103959;27;45476;-74
2023/09/20 07:36:49;;;;;;;;;3.00;1.00;;;;;19.50;100.00;100790.06;5115113;27;45447;-74
2023/09/20 07:39:17;;;;;;;;;2.00;2.00;;;;;19.51;100.00;100787.25;5117245;27;45387;-74
2023/09/20 07:41:46;;;;;;;;;3.00;1.67;;;;;19.48;100.00;100783.97;5108814;27;45461;-74
2023/09/20 07:44:13;;;;;;;;;2.00;2.00;;;;;19.50;100.00;100785.53;5119010;27;45368;-73
2023/09/20 07:46:39;;;;;;;;;1.00;1.00;;;;;19.45;100.00;100770.81;5114583;27;45372;-73
2023/09/20 07:49:09;;;;;;;;;1.33;1.33;;;;;19.54;100.00;100775.41;5100737;27;45602;-73
2023/09/20 07:51:36;;;;;;;;;2.00;2.00;;;;;19.54;100.00;100764.66;5106837;27;45374;-74
2023/09/20 07:54:03;;;;;;;;;1.00;1.00;;;;;19.58;100.00;100783.06;5105108;27;45397;-73
2023/09/20 07:56:28;;;;;;;;;2.00;1.00;;;;;19.61;100.00;100782.81;5119194;27;45494;-74
2023/09/20 07:58:53;;;;;;;;;0.33;0.33;;;;;19.61;100.00;100779.25;5110539;27;46195;-74
2023/09/20 08:01:19;;;;;;;;;1.67;1.33;;;;;19.55;100.00;100769.91;5108748;27;45858;-74
2023/09/20 08:03:50;;;;;;;;;1.00;1.00;;;;;19.60;100.00;100785.63;5120490;27;45497;-73
2023/09/20 08:06:20;;;;;;;;;1.00;1.00;;;;;19.56;100.00;100773.44;5101362;27;45539;-74
2023/09/20 08:08:47;;;;;;;;;1.00;1.00;;;;;19.59;100.00;100768.69;5103204;27;45588;-73
2023/09/20 08:11:12;;;;;;;;;2.33;1.00;;;;;19.68;100.00;100775.09;5101370;27;45354;-73
2023/09/20 08:13:38;;;;;;;;;3.67;2.00;;;;;19.67;100.00;100755.44;5107931;27;45350;-74
2023/09/20 08:16:04;;;;;;;;;1.00;1.00;;;;;19.84;100.00;100766.56;5107268;27;45400;-74
2023/09/20 08:21:14;;;;;;;;;2.33;2.33;;;;;20.16;100.00;100746.66;5105993;27;45445;-73
2023/09/20 09:02:16;;;;;;;;;2.00;2.00;;;;;21.48;94.03;100774.13;5110147;27;45361;-74
2023/09/20 09:04:53;;;;;;;;;1.67;1.67;;;;;21.57;92.26;100787.59;5101269;27;45372;-74
2023/09/20 09:07:19;;;;;;;;;2.00;2.00;;;;;21.72;94.11;100779.94;5109771;27;45496;-74
2023/09/20 09:09:48;;;;;;;;;1.67;1.00;;;;;21.87;92.87;100756.06;5102583;27;46401;-73
2023/09/20 09:12:14;;;;;;;;;2.00;2.00;;;;;22.05;94.40;100766.00;5108902;27;45347;-73
2023/09/20 09:14:41;;;;;;;;;2.00;2.00;;;;;21.95;87.18;100749.00;5106943;27;45315;-73
2023/09/20 09:17:08;;;;;;;;;1.67;1.67;;;;;21.94;87.42;100759.91;5115416;27;45450;-74
2023/09/20 09:19:35;;;;;;;;;1.00;1.00;;;;;22.09;89.26;100740.44;5102489;27;45302;-73
2023/09/20 09:22:02;;;;;;;;;1.33;1.00;;;;;22.20;87.10;100739.41;5110578;27;46157;-74
2023/09/20 09:24:28;;;;;;;;;1.00;1.00;;;;;22.30;83.75;100746.47;5103280;27;45256;-73
2023/09/20 09:27:05;;;;;;;;;4.00;2.00;;;;;22.27;85.55;100730.59;5107697;27;45228;-74
2023/09/20 09:29:30;;;;;;;;;2.33;2.00;;;;;22.38;84.35;100724.16;5119053;27;46158;-74
2023/09/20 09:31:56;;;;;;;;;3.00;2.00;;;;;22.36;84.82;100722.59;5111014;27;45379;-74
2023/09/20 09:34:22;;;;;;;;;2.00;1.00;;;;;22.40;84.44;100722.16;5113452;27;45473;-74
2023/09/20 09:36:48;;;;;;;;;1.33;1.33;;;;;22.40;80.76;100716.78;5099300;27;45599;-74
2023/09/20 09:39:14;;;;;;;;;2.00;2.00;;;;;22.48;82.53;100711.47;5099774;27;47064;-74
2023/09/20 09:41:43;;;;;;;;;3.00;1.67;;;;;22.60;84.37;100707.56;5108186;27;45439;-74
2023/09/20 09:44:10;;;;;;;;;1.33;1.33;;;;;22.66;82.79;100723.16;5098986;27;45310;-74
2023/09/20 09:46:38;;;;;;;;;3.00;1.00;;;;;22.63;81.17;100703.72;5099270;27;45512;-74
2023/09/20 09:49:10;;;;;;;;;1.00;1.00;;;;;22.71;83.16;100693.03;5098962;27;45331;-74
2023/09/20 09:51:45;;;;;;;;;2.00;2.00;;;;;22.64;80.99;100691.94;5118139;27;45642;-74
2023/09/20 09:54:12;;;;;;;;;4.00;2.33;;;;;22.59;77.81;100686.16;5121059;27;45395;-73
2023/09/20 09:56:38;;;;;;;;;1.67;1.67;;;;;22.69;81.88;100689.66;5122001;27;45338;-74
2023/09/20 09:59:04;;;;;;;;;2.00;2.00;;;;;22.78;80.19;100696.81;5109778;27;46265;-74
2023/09/20 10:01:36;;;;;;;;;2.67;2.00;;;;;22.89;79.00;100690.38;5109360;27;45216;-74
2023/09/20 10:04:07;;;;;;;;;4.33;2.00;;;;;22.93;78.34;100686.38;5116655;27;45353;-74
2023/09/20 10:06:37;;;;;;;;;2.00;2.00;;;;;23.02;74.18;100683.59;5110660;27;45393;-74
2023/09/20 10:09:08;;;;;;;;;3.00;3.00;;;;;23.06;78.28;100674.19;5105190;27;47702;-73
2023/09/20 10:11:34;;;;;;;;;1.67;1.67;;;;;23.22;75.52;100678.88;5107882;27;45275;-74
2023/09/20 10:14:00;;;;;;;;;1.00;1.00;;;;;23.24;75.10;100680.41;5113424;27;45292;-74
2023/09/20 10:16:28;;;;;;;;;1.33;1.33;;;;;23.15;71.24;100680.50;5102220;27;45545;-74
2023/09/20 10:18:53;;;;;;;;;3.00;1.00;;;;;23.12;72.22;100670.84;5103326;27;45558;-74
2023/09/20 10:21:23;;;;;;;;;1.00;1.00;;;;;23.01;69.18;100681.88;5103218;27;45315;-73
2023/09/20 10:23:51;;;;;;;;;1.33;1.33;;;;;22.89;72.61;100661.53;5114295;27;45213;-74
2023/09/20 10:26:18;;;;;;;;;1.33;1.33;;;;;22.75;72.82;100651.28;5109555;27;45365;-73
2023/09/20 10:28:45;;;;;;;;;1.00;1.00;;;;;22.66;73.38;100663.84;5104573;27;45365;-73
2023/09/20 10:31:18;;;;;;;;;2.00;0.67;;;;;22.70;75.30;100657.16;5106643;27;45240;-73
2023/09/20 10:33:48;;;;;;;;;0.67;0.67;;;;;22.66;71.37;100647.69;5109987;27;45511;-74
2023/09/20 10:36:22;;;;;;;;;2.00;1.00;;;;;22.69;70.92;100658.16;5116748;27;45628;-73
2023/09/20 10:38:48;;;;;;;;;1.33;1.33;;;;;22.68;71.21;100642.13;5105286;27;46980;-73
2023/09/20 10:41:14;;;;;;;;;2.00;0.67;;;;;22.72;69.84;100643.50;5102995;27;45444;-74
2023/09/20 10:43:43;;;;;;;;;2.00;1.00;;;;;22.77;69.56;100638.53;5122913;27;45367;-74
2023/09/20 10:46:18;;;;;;;;;0.00;0.00;;;;;22.77;69.46;100627.72;5109016;27;45348;-76
2023/09/20 10:48:50;;;;;;;;;1.00;1.00;;;;;22.83;69.63;100632.50;5110553;27;45370;-74
2023/09/20 10:51:38;;;;;;;;;2.67;1.67;;;;;22.89;68.82;100631.88;5120732;27;45339;-74
2023/09/20 10:54:36;;;;;;;;;2.00;1.00;;;;;22.91;66.19;100621.78;5121514;27;45394;-73
2023/09/20 10:57:09;;;;;;;;;1.00;1.00;;;;;22.97;64.18;100617.63;5112221;27;45294;-73
2023/09/20 10:59:36;;;;;;;;;1.67;1.67;;;;;22.93;65.50;100597.34;5121082;27;47218;-74
2023/09/20 11:02:08;;;;;;;;;2.33;1.00;;;;;23.04;66.62;100614.13;5119335;27;45492;-74
2023/09/20 11:04:35;;;;;;;;;1.00;1.00;;;;;23.05;64.92;100598.78;5120808;27;45933;-74
2023/09/20 11:07:02;;;;;;;;;1.33;1.33;;;;;23.13;66.41;100621.28;5122600;27;45204;-73
2023/09/20 11:09:31;;;;;;;;;2.00;1.00;;;;;23.21;66.18;100625.88;5110587;27;47058;-74
2023/09/20 11:12:06;;;;;;;;;3.00;1.67;;;;;23.21;64.95;100604.28;5114940;27;45507;-74
2023/09/20 11:14:42;;;;;;;;;2.00;1.33;;;;;23.31;63.78;100615.84;5122985;27;45453;-73
2023/09/20 11:17:12;;;;;;;;;2.67;2.00;;;;;23.31;63.83;100615.84;5120747;27;44845;-73
2023/09/20 11:19:38;;;;;;;;;1.67;1.00;;;;;23.31;64.38;100608.59;5120694;27;45340;-74
2023/09/20 11:22:04;;;;;;;;;2.00;1.00;;;;;23.28;63.89;100606.22;5108563;27;45385;-73
2023/09/20 11:24:29;;;;;;;;;2.00;2.00;;;;;23.28;62.29;100594.56;5119597;27;45320;-74
2023/09/20 11:26:56;;;;;;;;;1.00;1.00;;;;;23.34;64.94;100600.19;5119576;27;45466;-73
2023/09/20 11:29:21;;;;;;;;;1.33;1.33;;;;;23.38;64.73;100597.16;5117255;27;45900;-74
2023/09/20 11:31:48;;;;;;;;;1.00;1.00;;;;;23.36;63.91;100587.34;5119939;27;45506;-73
2023/09/20 11:34:14;;;;;;;;;3.00;2.00;;;;;23.45;65.71;100582.06;5109543;27;45518;-74
2023/09/20 11:36:44;;;;;;;;;2.00;2.00;;;;;23.55;65.51;100586.34;5107214;27;45543;-75
2023/09/20 11:39:09;;;;;;;;;4.00;2.00;;;;;23.62;65.13;100576.59;5122191;27;48098;-75
2023/09/20 11:41:37;;;;;;;;;3.00;1.00;;;;;23.76;63.76;100580.50;5109457;27;45465;-75
2023/09/20 11:44:06;;;;;;;;;3.33;2.00;;;;;23.82;64.36;100569.09;5105155;27;45602;-75
2023/09/20 11:46:35;;;;;;;;;1.00;1.00;;;;;23.83;62.82;100566.19;5106987;27;45948;-74
2023/09/20 11:49:04;;;;;;;;;0.00;0.00;;;;;23.88;62.27;100573.81;5111620;27;45752;-75
2023/09/20 11:51:32;;;;;;;;;1.00;1.00;;;;;23.99;61.41;100565.41;5117741;27;45477;-74
2023/09/20 11:53:58;;;;;;;;;3.00;2.00;;;;;24.08;62.00;100561.75;5122407;27;45233;-75
2023/09/20 11:56:29;;;;;;;;;2.00;2.00;;;;;24.11;60.46;100552.44;5111389;27;45202;-75
2023/09/20 11:58:59;;;;;;;;;3.33;2.00;;;;;24.19;61.52;100560.59;5103909;27;45313;-74
2023/09/20 12:01:29;;;;;;;;;1.33;1.33;;;;;24.29;62.06;100547.78;5115440;27;45224;-74